KBNW/BNW METAR and TAF weather

Enter ICAO airport designator
Station Type Date Time Source
KBNW METAR 2019/10/21 02:15 UTC NOAA

KBNW 210215Z AUTO 11019G28KT 9SM FEW026 SCT049 BKN060 12/10 A2968 RMK AO2


Station Type Date Time Source
KBNW Decoded METAR 2019/10/21 02:15 UTC NOAA

Boone Municipal, IA, United States (KBNW) 42-03N 093-51W
Oct 20, 2019 - 10:15 PM EDT / 2019.10.21 0215 UTC
Wind: from the ESE (110 degrees) at 22 MPH (19 KT) gusting to 32 MPH (28 KT):0
Visibility: 9 mile(s):0
Sky conditions: mostly cloudy
Temperature: 53 F (12 C)
Dew Point: 50 F (10 C)
Relative Humidity: 87%
Pressure (altimeter): 29.68 in. Hg (1005 hPa)
ob: KBNW 210215Z AUTO 11019G28KT 9SM FEW026 SCT049 BKN060 12/10 A2968 RMK AO2
cycle: 2

Station Type Date Time Source
KBNW TAF UTC NOAA

Error!

Example: see airport list